sensor_id;sensor_type;location;lat;lon;timestamp;P1;durP1;ratioP1;P2;durP2;ratioP2
29238;SDS011;16267;48.194;11.546;2023-04-24T00:00:10;7.30;;;1.30;;
29238;SDS011;16267;48.194;11.546;2023-04-24T00:02:40;1.95;;;0.90;;
29238;SDS011;16267;48.194;11.546;2023-04-24T00:05:10;1.08;;;0.70;;
29238;SDS011;16267;48.194;11.546;2023-04-24T00:07:36;2.33;;;0.80;;
29238;SDS011;16267;48.194;11.546;2023-04-24T00:10:02;1.77;;;0.80;;
29238;SDS011;16267;48.194;11.546;2023-04-24T00:12:28;2.95;;;0.80;;
29238;SDS011;16267;48.194;11.546;2023-04-24T00:14:54;1.60;;;0.82;;
29238;SDS011;16267;48.194;11.546;2023-04-24T00:17:20;3.15;;;0.73;;
29238;SDS011;16267;48.194;11.546;2023-04-24T00:19:46;4.00;;;0.82;;
29238;SDS011;16267;48.194;11.546;2023-04-24T00:22:13;1.23;;;0.80;;
29238;SDS011;16267;48.194;11.546;2023-04-24T00:24:39;1.67;;;0.75;;
29238;SDS011;16267;48.194;11.546;2023-04-24T00:27:17;1.20;;;0.60;;
29238;SDS011;16267;48.194;11.546;2023-04-24T00:29:42;1.55;;;0.70;;
29238;SDS011;16267;48.194;11.546;2023-04-24T00:32:08;1.40;;;0.60;;
29238;SDS011;16267;48.194;11.546;2023-04-24T00:34:34;3.80;;;0.80;;
29238;SDS011;16267;48.194;11.546;2023-04-24T00:37:00;3.60;;;0.77;;
29238;SDS011;16267;48.194;11.546;2023-04-24T00:39:26;1.40;;;0.80;;
29238;SDS011;16267;48.194;11.546;2023-04-24T00:41:51;1.67;;;0.60;;
29238;SDS011;16267;48.194;11.546;2023-04-24T00:44:19;1.48;;;0.50;;
29238;SDS011;16267;48.194;11.546;2023-04-24T00:46:51;1.65;;;0.60;;
29238;SDS011;16267;48.194;11.546;2023-04-24T00:49:22;4.53;;;0.70;;
29238;SDS011;16267;48.194;11.546;2023-04-24T00:51:48;1.00;;;0.57;;
29238;SDS011;16267;48.194;11.546;2023-04-24T00:54:16;2.65;;;0.60;;
29238;SDS011;16267;48.194;11.546;2023-04-24T00:56:42;2.03;;;0.63;;
29238;SDS011;16267;48.194;11.546;2023-04-24T00:59:09;2.45;;;0.55;;
29238;SDS011;16267;48.194;11.546;2023-04-24T01:01:37;1.48;;;0.60;;
29238;SDS011;16267;48.194;11.546;2023-04-24T01:04:07;5.40;;;0.68;;
29238;SDS011;16267;48.194;11.546;2023-04-24T01:06:34;2.30;;;0.85;;
29238;SDS011;16267;48.194;11.546;2023-04-24T01:09:03;1.30;;;0.68;;
29238;SDS011;16267;48.194;11.546;2023-04-24T01:11:29;0.57;;;0.52;;
29238;SDS011;16267;48.194;11.546;2023-04-24T01:13:56;2.05;;;0.45;;
29238;SDS011;16267;48.194;11.546;2023-04-24T01:16:23;2.50;;;0.50;;
29238;SDS011;16267;48.194;11.546;2023-04-24T01:18:49;1.83;;;0.63;;
29238;SDS011;16267;48.194;11.546;2023-04-24T01:21:16;1.90;;;0.50;;
29238;SDS011;16267;48.194;11.546;2023-04-24T01:23:43;0.82;;;0.60;;
29238;SDS011;16267;48.194;11.546;2023-04-24T01:26:10;1.20;;;0.32;;
29238;SDS011;16267;48.194;11.546;2023-04-24T01:28:37;1.33;;;0.50;;
29238;SDS011;16267;48.194;11.546;2023-04-24T01:31:03;0.70;;;0.40;;
29238;SDS011;16267;48.194;11.546;2023-04-24T01:33:30;0.30;;;0.30;;
29238;SDS011;16267;48.194;11.546;2023-04-24T01:35:56;1.65;;;0.52;;
29238;SDS011;16267;48.194;11.546;2023-04-24T01:38:22;2.50;;;0.30;;
29238;SDS011;16267;48.194;11.546;2023-04-24T01:40:48;0.43;;;0.40;;
29238;SDS011;16267;48.194;11.546;2023-04-24T01:43:16;1.33;;;0.50;;
29238;SDS011;16267;48.194;11.546;2023-04-24T01:45:42;1.23;;;0.50;;
29238;SDS011;16267;48.194;11.546;2023-04-24T01:48:08;1.42;;;0.52;;
29238;SDS011;16267;48.194;11.546;2023-04-24T01:50:34;0.47;;;0.47;;
29238;SDS011;16267;48.194;11.546;2023-04-24T01:55:30;1.08;;;0.50;;
29238;SDS011;16267;48.194;11.546;2023-04-24T01:57:56;0.80;;;0.40;;
29238;SDS011;16267;48.194;11.546;2023-04-24T02:00:24;0.57;;;0.40;;
29238;SDS011;16267;48.194;11.546;2023-04-24T02:02:50;0.38;;;0.30;;
29238;SDS011;16267;48.194;11.546;2023-04-24T02:05:16;0.82;;;0.30;;
29238;SDS011;16267;48.194;11.546;2023-04-24T02:07:42;1.88;;;0.32;;
29238;SDS011;16267;48.194;11.546;2023-04-24T02:10:08;1.38;;;0.47;;
29238;SDS011;16267;48.194;11.546;2023-04-24T02:12:34;1.90;;;0.50;;
29238;SDS011;16267;48.194;11.546;2023-04-24T02:15:00;1.75;;;0.45;;
29238;SDS011;16267;48.194;11.546;2023-04-24T02:17:26;1.10;;;0.50;;
29238;SDS011;16267;48.194;11.546;2023-04-24T02:19:51;1.27;;;0.43;;
29238;SDS011;16267;48.194;11.546;2023-04-24T02:22:17;0.63;;;0.35;;
29238;SDS011;16267;48.194;11.546;2023-04-24T02:24:43;1.88;;;1.25;;
29238;SDS011;16267;48.194;11.546;2023-04-24T02:27:09;3.30;;;0.50;;
29238;SDS011;16267;48.194;11.546;2023-04-24T02:29:35;0.65;;;0.30;;
29238;SDS011;16267;48.194;11.546;2023-04-24T02:32:00;0.60;;;0.40;;
29238;SDS011;16267;48.194;11.546;2023-04-24T02:34:26;2.80;;;0.35;;
29238;SDS011;16267;48.194;11.546;2023-04-24T02:36:52;1.05;;;0.40;;
29238;SDS011;16267;48.194;11.546;2023-04-24T02:39:19;1.35;;;0.45;;
29238;SDS011;16267;48.194;11.546;2023-04-24T02:41:45;1.80;;;0.40;;
29238;SDS011;16267;48.194;11.546;2023-04-24T02:44:11;2.75;;;0.50;;
29238;SDS011;16267;48.194;11.546;2023-04-24T02:46:37;1.52;;;0.80;;
29238;SDS011;16267;48.194;11.546;2023-04-24T02:49:03;5.82;;;0.60;;
29238;SDS011;16267;48.194;11.546;2023-04-24T02:51:28;1.90;;;0.60;;
29238;SDS011;16267;48.194;11.546;2023-04-24T02:53:54;1.13;;;0.60;;
29238;SDS011;16267;48.194;11.546;2023-04-24T02:56:20;0.80;;;0.50;;
29238;SDS011;16267;48.194;11.546;2023-04-24T02:58:46;1.23;;;0.43;;
29238;SDS011;16267;48.194;11.546;2023-04-24T03:01:12;0.88;;;0.50;;
29238;SDS011;16267;48.194;11.546;2023-04-24T03:03:38;1.50;;;0.40;;
29238;SDS011;16267;48.194;11.546;2023-04-24T03:06:04;0.65;;;0.30;;
29238;SDS011;16267;48.194;11.546;2023-04-24T03:08:31;4.57;;;0.47;;
29238;SDS011;16267;48.194;11.546;2023-04-24T03:10:57;2.28;;;0.30;;
29238;SDS011;16267;48.194;11.546;2023-04-24T03:13:26;1.60;;;0.55;;
29238;SDS011;16267;48.194;11.546;2023-04-24T03:15:52;3.15;;;0.68;;
29238;SDS011;16267;48.194;11.546;2023-04-24T03:18:19;4.40;;;0.60;;
29238;SDS011;16267;48.194;11.546;2023-04-24T03:20:47;1.88;;;0.50;;
29238;SDS011;16267;48.194;11.546;2023-04-24T03:23:13;0.50;;;0.47;;
29238;SDS011;16267;48.194;11.546;2023-04-24T03:25:40;0.32;;;0.32;;
29238;SDS011;16267;48.194;11.546;2023-04-24T03:28:07;0.68;;;0.40;;
29238;SDS011;16267;48.194;11.546;2023-04-24T03:30:33;0.88;;;0.40;;
29238;SDS011;16267;48.194;11.546;2023-04-24T03:32:59;0.68;;;0.40;;
29238;SDS011;16267;48.194;11.546;2023-04-24T03:35:27;0.80;;;0.40;;
29238;SDS011;16267;48.194;11.546;2023-04-24T03:37:53;2.67;;;0.68;;
29238;SDS011;16267;48.194;11.546;2023-04-24T03:40:20;2.58;;;0.50;;
29238;SDS011;16267;48.194;11.546;2023-04-24T03:42:45;0.57;;;0.50;;
29238;SDS011;16267;48.194;11.546;2023-04-24T03:45:11;2.58;;;0.70;;
29238;SDS011;16267;48.194;11.546;2023-04-24T03:47:37;1.13;;;0.50;;
29238;SDS011;16267;48.194;11.546;2023-04-24T03:50:02;1.45;;;0.55;;
29238;SDS011;16267;48.194;11.546;2023-04-24T03:52:29;1.10;;;0.57;;
29238;SDS011;16267;48.194;11.546;2023-04-24T03:54:54;2.10;;;0.60;;
29238;SDS011;16267;48.194;11.546;2023-04-24T03:57:20;3.47;;;0.50;;
29238;SDS011;16267;48.194;11.546;2023-04-24T03:59:46;3.08;;;0.50;;
29238;SDS011;16267;48.194;11.546;2023-04-24T04:02:12;1.33;;;0.57;;
29238;SDS011;16267;48.194;11.546;2023-04-24T04:04:37;1.35;;;0.70;;
29238;SDS011;16267;48.194;11.546;2023-04-24T04:07:03;1.33;;;0.55;;
29238;SDS011;16267;48.194;11.546;2023-04-24T04:09:30;2.63;;;0.68;;
29238;SDS011;16267;48.194;11.546;2023-04-24T04:11:56;1.30;;;0.60;;
29238;SDS011;16267;48.194;11.546;2023-04-24T04:14:22;2.72;;;0.70;;
29238;SDS011;16267;48.194;11.546;2023-04-24T04:17:06;0.70;;;0.50;;
29238;SDS011;16267;48.194;11.546;2023-04-24T04:19:32;2.22;;;0.50;;
29238;SDS011;16267;48.194;11.546;2023-04-24T04:21:58;1.27;;;0.50;;
29238;SDS011;16267;48.194;11.546;2023-04-24T04:24:24;1.63;;;0.60;;
29238;SDS011;16267;48.194;11.546;2023-04-24T04:26:51;2.75;;;0.50;;
29238;SDS011;16267;48.194;11.546;2023-04-24T04:29:21;1.35;;;0.60;;
29238;SDS011;16267;48.194;11.546;2023-04-24T04:31:47;1.45;;;0.77;;
29238;SDS011;16267;48.194;11.546;2023-04-24T04:34:13;0.63;;;0.52;;
29238;SDS011;16267;48.194;11.546;2023-04-24T04:36:40;1.23;;;0.50;;
29238;SDS011;16267;48.194;11.546;2023-04-24T04:39:06;0.60;;;0.50;;
29238;SDS011;16267;48.194;11.546;2023-04-24T04:41:32;1.33;;;0.40;;
29238;SDS011;16267;48.194;11.546;2023-04-24T04:44:00;1.33;;;0.40;;
29238;SDS011;16267;48.194;11.546;2023-04-24T04:46:32;1.95;;;0.50;;
29238;SDS011;16267;48.194;11.546;2023-04-24T04:48:59;1.08;;;0.60;;
29238;SDS011;16267;48.194;11.546;2023-04-24T04:51:26;1.85;;;0.52;;
29238;SDS011;16267;48.194;11.546;2023-04-24T04:53:52;0.85;;;0.43;;
29238;SDS011;16267;48.194;11.546;2023-04-24T04:56:18;2.42;;;0.60;;
29238;SDS011;16267;48.194;11.546;2023-04-24T04:58:44;1.33;;;0.68;;
29238;SDS011;16267;48.194;11.546;2023-04-24T05:01:10;1.70;;;0.63;;
29238;SDS011;16267;48.194;11.546;2023-04-24T05:03:36;2.67;;;0.60;;
29238;SDS011;16267;48.194;11.546;2023-04-24T05:06:01;4.38;;;0.82;;
29238;SDS011;16267;48.194;11.546;2023-04-24T05:08:27;0.95;;;0.50;;
29238;SDS011;16267;48.194;11.546;2023-04-24T05:10:53;2.10;;;0.68;;
29238;SDS011;16267;48.194;11.546;2023-04-24T05:13:20;4.30;;;0.85;;
29238;SDS011;16267;48.194;11.546;2023-04-24T05:15:46;3.53;;;0.90;;
29238;SDS011;16267;48.194;11.546;2023-04-24T05:18:12;0.98;;;0.68;;
29238;SDS011;16267;48.194;11.546;2023-04-24T05:20:37;1.25;;;0.50;;
29238;SDS011;16267;48.194;11.546;2023-04-24T05:23:04;2.42;;;0.60;;
29238;SDS011;16267;48.194;11.546;2023-04-24T05:25:30;1.50;;;0.57;;
29238;SDS011;16267;48.194;11.546;2023-04-24T05:28:00;1.20;;;0.70;;
29238;SDS011;16267;48.194;11.546;2023-04-24T05:30:26;2.38;;;0.60;;
29238;SDS011;16267;48.194;11.546;2023-04-24T05:32:53;0.65;;;0.47;;
29238;SDS011;16267;48.194;11.546;2023-04-24T05:35:18;2.95;;;0.77;;
29238;SDS011;16267;48.194;11.546;2023-04-24T05:37:44;1.35;;;0.43;;
29238;SDS011;16267;48.194;11.546;2023-04-24T05:40:10;2.17;;;0.73;;
29238;SDS011;16267;48.194;11.546;2023-04-24T05:42:36;1.48;;;0.88;;
29238;SDS011;16267;48.194;11.546;2023-04-24T05:45:03;2.00;;;0.45;;
29238;SDS011;16267;48.194;11.546;2023-04-24T05:47:29;4.22;;;0.50;;
29238;SDS011;16267;48.194;11.546;2023-04-24T05:49:55;0.98;;;0.50;;
29238;SDS011;16267;48.194;11.546;2023-04-24T05:52:21;3.15;;;0.60;;
29238;SDS011;16267;48.194;11.546;2023-04-24T05:54:46;4.18;;;0.65;;
29238;SDS011;16267;48.194;11.546;2023-04-24T05:57:12;5.55;;;0.93;;
29238;SDS011;16267;48.194;11.546;2023-04-24T05:59:38;1.00;;;0.50;;
29238;SDS011;16267;48.194;11.546;2023-04-24T06:02:05;1.05;;;0.50;;
29238;SDS011;16267;48.194;11.546;2023-04-24T06:04:32;2.40;;;0.30;;
29238;SDS011;16267;48.194;11.546;2023-04-24T06:06:58;3.22;;;0.60;;
29238;SDS011;16267;48.194;11.546;2023-04-24T06:09:24;2.10;;;0.60;;
29238;SDS011;16267;48.194;11.546;2023-04-24T06:11:51;1.48;;;0.68;;
29238;SDS011;16267;48.194;11.546;2023-04-24T06:14:20;0.75;;;0.40;;
29238;SDS011;16267;48.194;11.546;2023-04-24T06:16:46;2.63;;;0.45;;
29238;SDS011;16267;48.194;11.546;2023-04-24T06:19:11;1.45;;;0.43;;
29238;SDS011;16267;48.194;11.546;2023-04-24T06:21:37;0.32;;;0.30;;
29238;SDS011;16267;48.194;11.546;2023-04-24T06:24:10;0.45;;;0.40;;
29238;SDS011;16267;48.194;11.546;2023-04-24T06:26:39;1.23;;;0.30;;
29238;SDS011;16267;48.194;11.546;2023-04-24T06:29:05;4.32;;;0.40;;
29238;SDS011;16267;48.194;11.546;2023-04-24T06:31:32;0.90;;;0.50;;
29238;SDS011;16267;48.194;11.546;2023-04-24T06:34:02;2.08;;;0.40;;
29238;SDS011;16267;48.194;11.546;2023-04-24T06:36:28;1.08;;;0.50;;
29238;SDS011;16267;48.194;11.546;2023-04-24T06:38:55;0.52;;;0.30;;
29238;SDS011;16267;48.194;11.546;2023-04-24T06:41:22;0.30;;;0.30;;
29238;SDS011;16267;48.194;11.546;2023-04-24T06:43:48;1.20;;;0.40;;
29238;SDS011;16267;48.194;11.546;2023-04-24T06:46:13;4.63;;;0.50;;
29238;SDS011;16267;48.194;11.546;2023-04-24T06:48:39;1.23;;;0.73;;
29238;SDS011;16267;48.194;11.546;2023-04-24T06:51:05;1.65;;;0.70;;
29238;SDS011;16267;48.194;11.546;2023-04-24T06:53:30;1.15;;;0.30;;
29238;SDS011;16267;48.194;11.546;2023-04-24T06:55:56;1.75;;;0.30;;
29238;SDS011;16267;48.194;11.546;2023-04-24T06:58:22;2.72;;;0.80;;
29238;SDS011;16267;48.194;11.546;2023-04-24T07:00:49;1.10;;;0.40;;
29238;SDS011;16267;48.194;11.546;2023-04-24T07:03:17;0.50;;;0.32;;
29238;SDS011;16267;48.194;11.546;2023-04-24T07:05:43;0.80;;;0.38;;
29238;SDS011;16267;48.194;11.546;2023-04-24T07:08:09;2.03;;;0.50;;
29238;SDS011;16267;48.194;11.546;2023-04-24T07:10:38;0.80;;;0.40;;
29238;SDS011;16267;48.194;11.546;2023-04-24T07:13:04;2.40;;;0.43;;
29238;SDS011;16267;48.194;11.546;2023-04-24T07:15:31;2.08;;;0.60;;
29238;SDS011;16267;48.194;11.546;2023-04-24T07:17:57;5.35;;;0.45;;
29238;SDS011;16267;48.194;11.546;2023-04-24T07:20:23;1.83;;;0.50;;
29238;SDS011;16267;48.194;11.546;2023-04-24T07:22:49;0.85;;;0.45;;
29238;SDS011;16267;48.194;11.546;2023-04-24T07:25:16;0.80;;;0.50;;
29238;SDS011;16267;48.194;11.546;2023-04-24T07:27:42;1.00;;;0.30;;
29238;SDS011;16267;48.194;11.546;2023-04-24T07:30:08;0.57;;;0.38;;
29238;SDS011;16267;48.194;11.546;2023-04-24T07:32:34;0.82;;;0.35;;
29238;SDS011;16267;48.194;11.546;2023-04-24T07:35:00;1.23;;;0.52;;
29238;SDS011;16267;48.194;11.546;2023-04-24T07:37:26;1.60;;;0.57;;
29238;SDS011;16267;48.194;11.546;2023-04-24T07:39:52;1.85;;;0.32;;
29238;SDS011;16267;48.194;11.546;2023-04-24T07:42:18;2.35;;;0.40;;
29238;SDS011;16267;48.194;11.546;2023-04-24T07:44:44;1.80;;;0.57;;
29238;SDS011;16267;48.194;11.546;2023-04-24T07:47:11;1.00;;;0.25;;
29238;SDS011;16267;48.194;11.546;2023-04-24T07:49:37;1.00;;;0.38;;
29238;SDS011;16267;48.194;11.546;2023-04-24T07:52:03;0.50;;;0.40;;
29238;SDS011;16267;48.194;11.546;2023-04-24T07:54:29;0.20;;;0.20;;
29238;SDS011;16267;48.194;11.546;2023-04-24T07:56:55;0.98;;;0.30;;
29238;SDS011;16267;48.194;11.546;2023-04-24T07:59:20;0.85;;;0.50;;
29238;SDS011;16267;48.194;11.546;2023-04-24T08:01:46;2.45;;;0.60;;
29238;SDS011;16267;48.194;11.546;2023-04-24T08:04:12;1.23;;;0.20;;
29238;SDS011;16267;48.194;11.546;2023-04-24T08:06:38;3.42;;;0.50;;
29238;SDS011;16267;48.194;11.546;2023-04-24T08:09:03;2.75;;;0.20;;
29238;SDS011;16267;48.194;11.546;2023-04-24T08:11:29;1.10;;;0.40;;
29238;SDS011;16267;48.194;11.546;2023-04-24T08:13:55;0.20;;;0.20;;
29238;SDS011;16267;48.194;11.546;2023-04-24T08:16:21;0.93;;;0.30;;
29238;SDS011;16267;48.194;11.546;2023-04-24T08:18:48;4.82;;;0.90;;
29238;SDS011;16267;48.194;11.546;2023-04-24T08:21:15;1.13;;;0.20;;
29238;SDS011;16267;48.194;11.546;2023-04-24T08:23:43;2.45;;;0.50;;
29238;SDS011;16267;48.194;11.546;2023-04-24T08:26:10;0.82;;;0.47;;
29238;SDS011;16267;48.194;11.546;2023-04-24T08:28:37;1.52;;;0.40;;
29238;SDS011;16267;48.194;11.546;2023-04-24T08:31:04;1.23;;;0.40;;
29238;SDS011;16267;48.194;11.546;2023-04-24T08:33:30;0.28;;;0.28;;
29238;SDS011;16267;48.194;11.546;2023-04-24T08:36:00;3.45;;;0.30;;
29238;SDS011;16267;48.194;11.546;2023-04-24T08:38:30;2.35;;;0.30;;
29238;SDS011;16267;48.194;11.546;2023-04-24T08:40:59;1.20;;;0.40;;
29238;SDS011;16267;48.194;11.546;2023-04-24T08:43:26;0.80;;;0.52;;
29238;SDS011;16267;48.194;11.546;2023-04-24T08:45:52;1.17;;;0.50;;
29238;SDS011;16267;48.194;11.546;2023-04-24T08:48:22;1.25;;;0.43;;
29238;SDS011;16267;48.194;11.546;2023-04-24T08:50:48;0.65;;;0.60;;
29238;SDS011;16267;48.194;11.546;2023-04-24T08:53:17;3.47;;;0.50;;
29238;SDS011;16267;48.194;11.546;2023-04-24T08:55:45;1.73;;;0.50;;
29238;SDS011;16267;48.194;11.546;2023-04-24T08:58:13;2.80;;;0.70;;
29238;SDS011;16267;48.194;11.546;2023-04-24T09:00:41;2.60;;;0.93;;
29238;SDS011;16267;48.194;11.546;2023-04-24T09:03:11;0.90;;;0.50;;
29238;SDS011;16267;48.194;11.546;2023-04-24T09:05:41;3.42;;;0.70;;
29238;SDS011;16267;48.194;11.546;2023-04-24T09:08:10;4.00;;;1.10;;
29238;SDS011;16267;48.194;11.546;2023-04-24T09:10:39;3.00;;;0.90;;
29238;SDS011;16267;48.194;11.546;2023-04-24T09:13:05;2.25;;;0.77;;
29238;SDS011;16267;48.194;11.546;2023-04-24T09:15:34;4.82;;;1.27;;
29238;SDS011;16267;48.194;11.546;2023-04-24T09:18:00;4.22;;;0.70;;
29238;SDS011;16267;48.194;11.546;2023-04-24T09:20:26;2.65;;;0.70;;
29238;SDS011;16267;48.194;11.546;2023-04-24T09:22:59;3.85;;;0.80;;
29238;SDS011;16267;48.194;11.546;2023-04-24T09:25:31;3.03;;;1.03;;
29238;SDS011;16267;48.194;11.546;2023-04-24T09:28:02;3.08;;;0.90;;
29238;SDS011;16267;48.194;11.546;2023-04-24T09:30:30;4.03;;;1.10;;
29238;SDS011;16267;48.194;11.546;2023-04-24T09:35:40;3.83;;;1.15;;
29238;SDS011;16267;48.194;11.546;2023-04-24T09:38:08;2.30;;;0.93;;
29238;SDS011;16267;48.194;11.546;2023-04-24T09:40:34;1.55;;;0.85;;
29238;SDS011;16267;48.194;11.546;2023-04-24T09:43:00;1.42;;;0.80;;
29238;SDS011;16267;48.194;11.546;2023-04-24T09:45:28;2.33;;;1.10;;
29238;SDS011;16267;48.194;11.546;2023-04-24T09:48:05;2.15;;;1.08;;
29238;SDS011;16267;48.194;11.546;2023-04-24T09:50:35;2.08;;;0.90;;
29238;SDS011;16267;48.194;11.546;2023-04-24T09:53:05;2.95;;;0.98;;
29238;SDS011;16267;48.194;11.546;2023-04-24T09:55:39;2.47;;;1.70;;
29238;SDS011;16267;48.194;11.546;2023-04-24T09:58:10;5.60;;;1.10;;
29238;SDS011;16267;48.194;11.546;2023-04-24T10:00:36;2.50;;;0.90;;
29238;SDS011;16267;48.194;11.546;2023-04-24T10:03:02;1.27;;;1.00;;
29238;SDS011;16267;48.194;11.546;2023-04-24T10:05:33;1.98;;;0.90;;
29238;SDS011;16267;48.194;11.546;2023-04-24T10:08:08;1.88;;;1.15;;
29238;SDS011;16267;48.194;11.546;2023-04-24T10:10:40;1.33;;;1.02;;
29238;SDS011;16267;48.194;11.546;2023-04-24T10:13:08;4.60;;;1.15;;
29238;SDS011;16267;48.194;11.546;2023-04-24T10:15:36;4.10;;;1.30;;
29238;SDS011;16267;48.194;11.546;2023-04-24T10:18:06;4.45;;;1.17;;
29238;SDS011;16267;48.194;11.546;2023-04-24T10:20:34;3.38;;;0.95;;
29238;SDS011;16267;48.194;11.546;2023-04-24T10:23:04;3.70;;;1.20;;
29238;SDS011;16267;48.194;11.546;2023-04-24T10:25:31;3.08;;;1.35;;
29238;SDS011;16267;48.194;11.546;2023-04-24T10:27:59;1.75;;;1.10;;
29238;SDS011;16267;48.194;11.546;2023-04-24T10:30:27;1.90;;;1.00;;
29238;SDS011;16267;48.194;11.546;2023-04-24T10:32:55;2.25;;;0.98;;
29238;SDS011;16267;48.194;11.546;2023-04-24T10:35:21;1.92;;;0.90;;
29238;SDS011;16267;48.194;11.546;2023-04-24T10:40:30;3.97;;;1.15;;
29238;SDS011;16267;48.194;11.546;2023-04-24T10:43:03;2.03;;;0.95;;
29238;SDS011;16267;48.194;11.546;2023-04-24T10:45:33;1.85;;;0.93;;
29238;SDS011;16267;48.194;11.546;2023-04-24T10:53:16;5.97;;;1.55;;
29238;SDS011;16267;48.194;11.546;2023-04-24T10:55:58;9.80;;;4.20;;
29238;SDS011;16267;48.194;11.546;2023-04-24T10:58:39;2.92;;;0.80;;
29238;SDS011;16267;48.194;11.546;2023-04-24T11:01:29;3.75;;;0.90;;
29238;SDS011;16267;48.194;11.546;2023-04-24T11:03:58;2.95;;;1.02;;
29238;SDS011;16267;48.194;11.546;2023-04-24T11:06:31;3.40;;;1.30;;
29238;SDS011;16267;48.194;11.546;2023-04-24T11:09:04;2.08;;;0.70;;
29238;SDS011;16267;48.194;11.546;2023-04-24T11:11:33;1.88;;;1.30;;
29238;SDS011;16267;48.194;11.546;2023-04-24T11:14:03;1.50;;;1.08;;
29238;SDS011;16267;48.194;11.546;2023-04-24T11:17:26;2.28;;;0.85;;
29238;SDS011;16267;48.194;11.546;2023-04-24T11:22:13;2.05;;;1.20;;
29238;SDS011;16267;48.194;11.546;2023-04-24T11:27:14;1.95;;;1.00;;
29238;SDS011;16267;48.194;11.546;2023-04-24T11:32:28;1.85;;;0.98;;
29238;SDS011;16267;48.194;11.546;2023-04-24T11:35:04;2.13;;;1.10;;
29238;SDS011;16267;48.194;11.546;2023-04-24T11:37:34;1.30;;;0.70;;
29238;SDS011;16267;48.194;11.546;2023-04-24T11:40:03;1.60;;;0.70;;
29238;SDS011;16267;48.194;11.546;2023-04-24T11:42:35;1.00;;;0.65;;
29238;SDS011;16267;48.194;11.546;2023-04-24T11:45:07;1.70;;;0.60;;
29238;SDS011;16267;48.194;11.546;2023-04-24T11:47:38;0.73;;;0.60;;
29238;SDS011;16267;48.194;11.546;2023-04-24T11:50:05;3.72;;;0.70;;
29238;SDS011;16267;48.194;11.546;2023-04-24T11:52:38;3.20;;;0.70;;
29238;SDS011;16267;48.194;11.546;2023-04-24T11:55:06;2.35;;;0.60;;
29238;SDS011;16267;48.194;11.546;2023-04-24T11:57:38;1.30;;;0.60;;
29238;SDS011;16267;48.194;11.546;2023-04-24T12:00:09;1.75;;;0.50;;
29238;SDS011;16267;48.194;11.546;2023-04-24T12:02:45;3.33;;;0.80;;
29238;SDS011;16267;48.194;11.546;2023-04-24T12:05:21;1.55;;;0.70;;
29238;SDS011;16267;48.194;11.546;2023-04-24T12:07:49;1.52;;;0.80;;
29238;SDS011;16267;48.194;11.546;2023-04-24T12:10:19;1.45;;;0.82;;
29238;SDS011;16267;48.194;11.546;2023-04-24T12:12:47;1.80;;;1.05;;
29238;SDS011;16267;48.194;11.546;2023-04-24T12:15:15;2.42;;;0.90;;
29238;SDS011;16267;48.194;11.546;2023-04-24T12:17:42;2.67;;;0.90;;
29238;SDS011;16267;48.194;11.546;2023-04-24T12:20:10;1.98;;;0.98;;
29238;SDS011;16267;48.194;11.546;2023-04-24T12:22:43;3.85;;;0.90;;
29238;SDS011;16267;48.194;11.546;2023-04-24T12:25:21;2.50;;;0.88;;
29238;SDS011;16267;48.194;11.546;2023-04-24T12:27:55;2.58;;;0.70;;
29238;SDS011;16267;48.194;11.546;2023-04-24T12:30:44;2.35;;;0.85;;
29238;SDS011;16267;48.194;11.546;2023-04-24T12:33:17;2.22;;;1.13;;
29238;SDS011;16267;48.194;11.546;2023-04-24T12:35:45;1.75;;;0.77;;
29238;SDS011;16267;48.194;11.546;2023-04-24T12:38:11;0.90;;;0.80;;
29238;SDS011;16267;48.194;11.546;2023-04-24T12:40:39;1.10;;;0.70;;
29238;SDS011;16267;48.194;11.546;2023-04-24T12:43:16;3.17;;;0.80;;
29238;SDS011;16267;48.194;11.546;2023-04-24T12:45:44;1.25;;;0.80;;
29238;SDS011;16267;48.194;11.546;2023-04-24T12:48:12;2.78;;;0.82;;
29238;SDS011;16267;48.194;11.546;2023-04-24T12:50:39;1.75;;;0.77;;
29238;SDS011;16267;48.194;11.546;2023-04-24T12:53:05;1.40;;;0.73;;
29238;SDS011;16267;48.194;11.546;2023-04-24T12:55:33;1.63;;;0.90;;
29238;SDS011;16267;48.194;11.546;2023-04-24T12:58:00;2.22;;;1.05;;
29238;SDS011;16267;48.194;11.546;2023-04-24T13:00:26;1.55;;;0.82;;
29238;SDS011;16267;48.194;11.546;2023-04-24T13:02:52;3.83;;;0.90;;
29238;SDS011;16267;48.194;11.546;2023-04-24T13:05:18;1.35;;;0.82;;
29238;SDS011;16267;48.194;11.546;2023-04-24T13:07:44;2.38;;;0.80;;
29238;SDS011;16267;48.194;11.546;2023-04-24T13:10:09;2.17;;;1.00;;
29238;SDS011;16267;48.194;11.546;2023-04-24T13:12:35;2.72;;;1.13;;
29238;SDS011;16267;48.194;11.546;2023-04-24T13:15:02;3.47;;;1.33;;
29238;SDS011;16267;48.194;11.546;2023-04-24T13:17:28;3.90;;;1.58;;
29238;SDS011;16267;48.194;11.546;2023-04-24T13:19:54;6.30;;;1.23;;
29238;SDS011;16267;48.194;11.546;2023-04-24T13:22:20;1.48;;;1.00;;
29238;SDS011;16267;48.194;11.546;2023-04-24T13:24:46;3.78;;;1.60;;
29238;SDS011;16267;48.194;11.546;2023-04-24T13:27:13;6.25;;;1.33;;
29238;SDS011;16267;48.194;11.546;2023-04-24T13:29:40;4.10;;;1.70;;
29238;SDS011;16267;48.194;11.546;2023-04-24T13:32:06;2.92;;;1.50;;
29238;SDS011;16267;48.194;11.546;2023-04-24T13:34:35;2.30;;;1.30;;
29238;SDS011;16267;48.194;11.546;2023-04-24T13:37:01;5.20;;;1.30;;
29238;SDS011;16267;48.194;11.546;2023-04-24T13:39:31;4.70;;;1.17;;
29238;SDS011;16267;48.194;11.546;2023-04-24T13:41:57;5.35;;;1.25;;
29238;SDS011;16267;48.194;11.546;2023-04-24T13:44:23;2.08;;;1.20;;
29238;SDS011;16267;48.194;11.546;2023-04-24T13:46:51;5.70;;;1.40;;
29238;SDS011;16267;48.194;11.546;2023-04-24T13:49:21;2.90;;;1.42;;
29238;SDS011;16267;48.194;11.546;2023-04-24T13:51:49;2.33;;;1.25;;
29238;SDS011;16267;48.194;11.546;2023-04-24T13:54:16;4.28;;;1.00;;
29238;SDS011;16267;48.194;11.546;2023-04-24T13:56:42;1.65;;;0.90;;
29238;SDS011;16267;48.194;11.546;2023-04-24T13:59:07;6.18;;;1.00;;
29238;SDS011;16267;48.194;11.546;2023-04-24T14:01:33;1.80;;;0.93;;
29238;SDS011;16267;48.194;11.546;2023-04-24T14:04:00;3.58;;;0.95;;
29238;SDS011;16267;48.194;11.546;2023-04-24T14:06:25;2.35;;;1.00;;
29238;SDS011;16267;48.194;11.546;2023-04-24T14:08:51;2.38;;;0.88;;
29238;SDS011;16267;48.194;11.546;2023-04-24T14:11:17;4.68;;;1.05;;
29238;SDS011;16267;48.194;11.546;2023-04-24T14:13:44;7.90;;;1.27;;
29238;SDS011;16267;48.194;11.546;2023-04-24T14:16:10;2.63;;;0.85;;
29238;SDS011;16267;48.194;11.546;2023-04-24T14:18:36;1.65;;;0.88;;
29238;SDS011;16267;48.194;11.546;2023-04-24T14:21:03;3.20;;;1.00;;
29238;SDS011;16267;48.194;11.546;2023-04-24T14:23:29;2.67;;;1.02;;
29238;SDS011;16267;48.194;11.546;2023-04-24T14:25:55;6.82;;;1.17;;
29238;SDS011;16267;48.194;11.546;2023-04-24T14:28:22;7.25;;;1.10;;
29238;SDS011;16267;48.194;11.546;2023-04-24T14:30:49;3.78;;;1.20;;
29238;SDS011;16267;48.194;11.546;2023-04-24T14:33:15;2.17;;;0.95;;
29238;SDS011;16267;48.194;11.546;2023-04-24T14:35:43;2.17;;;1.10;;
29238;SDS011;16267;48.194;11.546;2023-04-24T14:38:09;3.20;;;1.25;;
29238;SDS011;16267;48.194;11.546;2023-04-24T14:40:35;3.15;;;1.25;;
29238;SDS011;16267;48.194;11.546;2023-04-24T14:43:02;7.45;;;1.33;;
29238;SDS011;16267;48.194;11.546;2023-04-24T14:45:28;8.30;;;1.42;;
29238;SDS011;16267;48.194;11.546;2023-04-24T14:47:54;3.20;;;1.25;;
29238;SDS011;16267;48.194;11.546;2023-04-24T14:50:21;3.13;;;1.17;;
29238;SDS011;16267;48.194;11.546;2023-04-24T14:52:47;4.05;;;1.10;;
29238;SDS011;16267;48.194;11.546;2023-04-24T14:55:13;1.08;;;0.80;;